createdAt,value
2019-05-22T00:01:41.086Z,59.66
2019-05-22T00:04:18.385Z,59.64
2019-05-22T00:06:50.562Z,60.97
2019-05-22T00:09:26.053Z,59.16
2019-05-22T00:11:56.523Z,57.73
2019-05-22T00:14:28.412Z,58.67
2019-05-22T00:16:59.440Z,61.08
2019-05-22T00:19:30.671Z,60.78
2019-05-22T00:22:11.324Z,60.53
2019-05-22T00:24:44.223Z,59.75
2019-05-22T00:27:15.139Z,59.15
2019-05-22T00:29:48.228Z,60.42
2019-05-22T00:32:17.895Z,61.87
2019-05-22T00:34:48.512Z,61.02
2019-05-22T00:37:19.547Z,60.66
2019-05-22T00:39:49.259Z,58.82
2019-05-22T00:42:20.705Z,60.30
2019-05-22T00:44:51.711Z,60.01
2019-05-22T00:47:22.735Z,60.19
2019-05-22T00:49:55.285Z,58.90
2019-05-22T00:52:43.495Z,59.31
2019-05-22T00:55:32.111Z,58.58
2019-05-22T00:58:26.920Z,59.76
2019-05-22T01:01:01.904Z,58.41
2019-05-22T01:03:33.686Z,58.44
2019-05-22T01:06:04.944Z,58.90
2019-05-22T01:08:37.584Z,60.15
2019-05-22T01:11:07.461Z,61.61
2019-05-22T01:13:37.942Z,59.46
2019-05-22T01:16:09.098Z,59.69
2019-05-22T01:18:38.998Z,61.51
2019-05-22T01:21:10.416Z,58.98
2019-05-22T01:23:40.259Z,57.88
2019-05-22T01:26:13.605Z,57.71
2019-05-22T01:28:46.199Z,58.43
2019-05-22T01:31:33.294Z,59.28
2019-05-22T01:34:08.185Z,60.88
2019-05-22T01:36:44.531Z,60.77
2019-05-22T01:39:39.483Z,59.60
2019-05-22T01:42:12.699Z,59.31
2019-05-22T01:44:57.968Z,59.88
2019-05-22T01:47:20.879Z,60.00
2019-05-22T01:49:54.099Z,60.03
2019-05-22T01:52:23.767Z,60.42
2019-05-22T01:54:55.040Z,59.32
2019-05-22T01:57:26.495Z,60.75
2019-05-22T01:59:57.046Z,59.34
2019-05-22T02:02:26.870Z,59.22
2019-05-22T02:04:58.254Z,58.61
2019-05-22T02:07:29.016Z,57.55
2019-05-22T02:09:59.483Z,58.29
2019-05-22T02:12:50.955Z,58.10
2019-05-22T02:15:21.956Z,58.37
2019-05-22T02:17:52.704Z,57.51
2019-05-22T02:20:22.548Z,56.12
2019-05-22T02:22:52.265Z,55.84
2019-05-22T02:25:21.542Z,55.21
2019-05-22T02:27:51.678Z,55.79
2019-05-22T02:30:23.199Z,54.96
2019-05-22T02:32:53.139Z,55.27
2019-05-22T02:35:23.788Z,54.78
2019-05-22T02:37:53.272Z,55.35
2019-05-22T02:40:27.250Z,55.79
2019-05-22T02:42:58.433Z,55.86
2019-05-22T02:45:29.068Z,55.04
2019-05-22T02:48:00.634Z,54.99
2019-05-22T02:50:30.377Z,55.50
2019-05-22T02:53:01.613Z,55.42
2019-05-22T02:55:30.964Z,56.91
2019-05-22T02:58:00.511Z,55.06
2019-05-22T03:00:34.389Z,54.12
2019-05-22T03:03:06.165Z,55.05
2019-05-22T03:05:35.636Z,53.69
2019-05-22T03:08:05.205Z,54.58
2019-05-22T03:10:34.787Z,53.89
2019-05-22T03:13:04.121Z,53.64
2019-05-22T03:15:33.863Z,53.33
2019-05-22T03:18:05.299Z,53.13
2019-05-22T03:20:36.397Z,53.50
2019-05-22T03:23:14.457Z,52.74
2019-05-22T03:25:44.790Z,52.66
2019-05-22T03:28:14.966Z,52.45
2019-05-22T03:30:46.572Z,52.10
2019-05-22T03:33:16.263Z,52.08
2019-05-22T03:35:48.537Z,53.09
2019-05-22T03:38:20.342Z,52.21
2019-05-22T03:40:53.155Z,52.43
2019-05-22T03:43:25.249Z,52.46
2019-05-22T03:45:57.199Z,53.08
2019-05-22T03:48:28.333Z,53.13
2019-05-22T03:51:07.789Z,52.19
2019-05-22T03:53:37.361Z,53.40
2019-05-22T03:56:06.645Z,51.63
2019-05-22T03:58:36.166Z,52.79
2019-05-22T04:01:07.205Z,52.02
2019-05-22T04:03:36.599Z,53.10
2019-05-22T04:06:06.980Z,53.47
2019-05-22T04:08:37.330Z,52.08
2019-05-22T04:11:08.398Z,52.51
2019-05-22T04:13:38.666Z,52.48
2019-05-22T04:16:10.741Z,52.92
2019-05-22T04:18:40.756Z,51.53
2019-05-22T04:21:10.122Z,52.39
2019-05-22T04:23:39.896Z,53.26
2019-05-22T04:26:11.973Z,52.81
2019-05-22T04:28:49.972Z,51.81
2019-05-22T04:31:23.211Z,51.57
2019-05-22T04:33:53.092Z,51.75
2019-05-22T04:36:24.204Z,51.12
2019-05-22T04:38:53.596Z,50.41
2019-05-22T04:41:22.911Z,51.10
2019-05-22T04:43:52.360Z,50.68
2019-05-22T04:46:23.356Z,51.53
2019-05-22T04:48:54.007Z,51.12
2019-05-22T04:51:31.157Z,50.46
2019-05-22T04:54:00.641Z,51.20
2019-05-22T04:56:30.604Z,51.02
2019-05-22T04:59:01.836Z,49.91
2019-05-22T05:01:31.226Z,49.85
2019-05-22T05:04:01.525Z,49.63
2019-05-22T05:06:33.504Z,50.01
2019-05-22T05:09:03.937Z,50.38
2019-05-22T05:11:34.043Z,51.03
2019-05-22T05:14:03.400Z,49.80
2019-05-22T05:16:32.835Z,49.44
2019-05-22T05:19:02.221Z,49.14
2019-05-22T05:21:31.529Z,49.33
2019-05-22T05:24:00.819Z,50.25
2019-05-22T05:26:31.505Z,48.93
2019-05-22T05:29:01.319Z,50.13
2019-05-22T05:31:31.136Z,49.32
2019-05-22T05:34:32.322Z,49.73
2019-05-22T05:37:05.164Z,49.96
2019-05-22T05:40:39.311Z,48.87
2019-05-22T05:43:10.637Z,48.74
2019-05-22T05:45:41.972Z,50.31
2019-05-22T05:48:14.104Z,47.89
2019-05-22T05:51:11.148Z,49.97
2019-05-22T05:54:01.028Z,48.24
2019-05-22T05:56:33.416Z,49.85
2019-05-22T05:59:04.773Z,50.03
2019-05-22T06:01:38.951Z,49.00
2019-05-22T06:04:11.064Z,48.40
2019-05-22T06:07:21.773Z,49.24
2019-05-22T06:10:42.821Z,49.47
2019-05-22T06:13:12.748Z,50.28
2019-05-22T06:16:29.331Z,49.78
2019-05-22T06:18:59.327Z,49.00
2019-05-22T06:21:29.296Z,47.90
2019-05-22T06:24:29.900Z,48.61
2019-05-22T06:27:18.928Z,47.76
2019-05-22T06:29:59.345Z,49.48
2019-05-22T06:33:21.631Z,48.84
2019-05-22T06:35:51.319Z,47.17
2019-05-22T06:38:52.902Z,47.59
2019-05-22T06:41:29.118Z,48.47
2019-05-22T06:44:36.134Z,48.12
2019-05-22T06:47:09.063Z,46.57
2019-05-22T06:49:56.749Z,48.02
2019-05-22T06:52:26.525Z,46.47
2019-05-22T06:54:56.544Z,46.15
2019-05-22T06:57:32.005Z,46.72
2019-05-22T07:00:21.640Z,47.76
2019-05-22T07:02:51.014Z,47.25
2019-05-22T07:05:20.828Z,46.63
2019-05-22T07:07:50.495Z,46.47
2019-05-22T07:10:20.692Z,46.30
2019-05-22T07:12:51.008Z,47.60
2019-05-22T07:15:51.155Z,45.67
2019-05-22T07:18:22.553Z,45.52
2019-05-22T07:20:52.454Z,45.33
2019-05-22T07:23:30.347Z,44.92
2019-05-22T07:26:00.903Z,44.92
2019-05-22T07:28:31.952Z,44.28
2019-05-22T07:31:02.900Z,43.30
2019-05-22T07:33:32.897Z,44.24
2019-05-22T07:36:09.852Z,44.37
2019-05-22T07:38:37.754Z,45.39
2019-05-22T07:41:07.732Z,44.27
2019-05-22T07:43:41.209Z,44.95
2019-05-22T07:46:08.722Z,44.11
2019-05-22T07:48:38.488Z,46.00
2019-05-22T07:51:08.767Z,44.09
2019-05-22T07:53:38.080Z,44.22
2019-05-22T07:56:11.453Z,44.02
2019-05-22T07:58:42.013Z,43.98
2019-05-22T08:01:12.213Z,43.61
2019-05-22T08:03:43.636Z,42.07
2019-05-22T08:06:13.204Z,44.58
2019-05-22T08:08:44.498Z,45.52
2019-05-22T08:11:14.527Z,44.37
2019-05-22T08:13:45.291Z,42.58
2019-05-22T08:16:16.862Z,42.26
2019-05-22T08:18:46.573Z,41.68
2019-05-22T08:21:15.968Z,41.48
2019-05-22T08:23:45.546Z,40.77
2019-05-22T08:26:16.855Z,40.67
2019-05-22T08:28:46.328Z,39.60
2019-05-22T08:31:17.243Z,40.02
2019-05-22T08:33:46.735Z,41.20
2019-05-22T08:36:16.283Z,39.93
2019-05-22T08:38:45.766Z,40.68
2019-05-22T08:41:18.943Z,39.13
2019-05-22T08:44:13.959Z,38.74
2019-05-22T08:46:20.444Z,39.07
2019-05-22T08:48:50.093Z,37.71
2019-05-22T08:51:19.923Z,38.73
2019-05-22T08:53:49.685Z,38.57
2019-05-22T08:56:19.621Z,37.97
2019-05-22T08:58:48.955Z,38.73
2019-05-22T09:01:20.017Z,41.13
2019-05-22T09:03:49.379Z,37.70
2019-05-22T09:06:18.946Z,39.25
2019-05-22T09:08:51.504Z,40.55
2019-05-22T09:11:25.112Z,42.23
2019-05-22T09:13:52.052Z,41.81
2019-05-22T09:16:21.628Z,38.42
2019-05-22T09:18:52.458Z,40.52
2019-05-22T09:21:23.517Z,38.95
2019-05-22T09:23:55.829Z,39.56
2019-05-22T09:26:26.080Z,38.27
2019-05-22T09:28:55.616Z,38.92
2019-05-22T09:31:26.199Z,37.44
2019-05-22T09:34:00.219Z,38.09
2019-05-22T09:36:34.435Z,39.50
2019-05-22T09:39:05.648Z,38.62
2019-05-22T09:41:35.097Z,38.20
2019-05-22T09:44:04.745Z,36.83
2019-05-22T09:46:34.237Z,38.19
2019-05-22T09:49:04.981Z,37.14
2019-05-22T09:51:34.361Z,35.69
2019-05-22T09:54:04.765Z,36.09
2019-05-22T09:56:34.382Z,36.77
2019-05-22T09:59:05.104Z,37.68
2019-05-22T10:01:34.765Z,37.94
2019-05-22T10:04:04.694Z,36.92
2019-05-22T10:06:34.170Z,35.58
2019-05-22T10:09:04.308Z,37.96
2019-05-22T10:11:35.660Z,36.54
2019-05-22T10:14:06.444Z,37.52
2019-05-22T10:16:37.402Z,36.78
2019-05-22T10:19:06.978Z,35.78
2019-05-22T10:21:37.439Z,35.35
2019-05-22T10:24:06.910Z,34.81
2019-05-22T10:26:37.301Z,34.63
2019-05-22T10:29:08.253Z,36.95
2019-05-22T10:31:37.740Z,35.47
2019-05-22T10:34:08.363Z,33.93
2019-05-22T10:36:43.093Z,34.00
2019-05-22T10:39:10.664Z,35.88
2019-05-22T10:41:39.972Z,34.44
2019-05-22T10:44:09.292Z,36.37
2019-05-22T10:46:38.718Z,35.29
2019-05-22T10:49:08.100Z,35.28
2019-05-22T10:51:37.698Z,35.90
2019-05-22T10:54:07.078Z,35.99
2019-05-22T10:56:36.377Z,36.75
2019-05-22T10:59:06.991Z,34.60
2019-05-22T11:01:37.692Z,32.94
2019-05-22T11:04:08.123Z,32.99
2019-05-22T11:06:37.813Z,34.48
2019-05-22T11:09:09.765Z,33.38
2019-05-22T11:11:40.376Z,33.02
2019-05-22T11:14:11.296Z,33.99
2019-05-22T11:16:40.637Z,33.64
2019-05-22T11:19:10.370Z,33.36
2019-05-22T11:21:39.643Z,33.86
2019-05-22T11:24:09.793Z,33.43
2019-05-22T11:26:39.132Z,35.69
2019-05-22T11:29:09.350Z,33.32
2019-05-22T11:31:39.400Z,34.73
2019-05-22T11:34:08.901Z,34.74
2019-05-22T11:36:39.085Z,35.52
2019-05-22T11:39:14.003Z,34.64
2019-05-22T11:41:43.996Z,34.85
2019-05-22T11:44:14.333Z,34.81
2019-05-22T11:46:45.072Z,34.26
2019-05-22T11:49:14.372Z,33.21
2019-05-22T11:51:44.146Z,33.31
2019-05-22T11:54:13.554Z,34.79
2019-05-22T11:56:42.964Z,33.35
2019-05-22T11:59:13.808Z,33.97
2019-05-22T12:01:43.410Z,33.24
2019-05-22T12:04:13.591Z,33.17
2019-05-22T12:06:43.887Z,32.26
2019-05-22T12:09:16.697Z,35.36
2019-05-22T12:11:46.707Z,32.88
2019-05-22T12:14:18.497Z,31.34
2019-05-22T12:16:53.009Z,31.91
2019-05-22T12:19:22.601Z,32.20
2019-05-22T12:21:52.009Z,32.90
2019-05-22T12:24:27.906Z,31.72
2019-05-22T12:26:52.905Z,31.25
2019-05-22T12:29:22.863Z,30.14
2019-05-22T12:31:52.414Z,30.49
2019-05-22T12:34:21.784Z,30.45
2019-05-22T12:36:51.803Z,29.64
2019-05-22T12:39:24.149Z,30.63
2019-05-22T12:41:55.322Z,32.05
2019-05-22T12:44:25.440Z,30.40
2019-05-22T12:46:54.838Z,29.82
2019-05-22T12:49:26.061Z,30.19
2019-05-22T12:51:55.489Z,30.43
2019-05-22T12:54:24.800Z,31.21
2019-05-22T12:56:55.265Z,30.30
2019-05-22T12:59:27.359Z,30.32
2019-05-22T13:01:58.189Z,31.49
2019-05-22T13:04:29.273Z,30.65
2019-05-22T13:07:00.706Z,29.75
2019-05-22T13:09:31.133Z,29.02
2019-05-22T13:12:00.630Z,29.88
2019-05-22T13:14:30.440Z,29.39
2019-05-22T13:17:01.758Z,29.66
2019-05-22T13:19:33.712Z,30.91
2019-05-22T13:22:04.548Z,29.65
2019-05-22T13:24:35.363Z,28.74
2019-05-22T13:27:07.629Z,28.43
2019-05-22T13:29:37.156Z,27.59
2019-05-22T13:32:08.771Z,29.03
2019-05-22T13:34:39.952Z,29.32
2019-05-22T13:37:10.218Z,29.46
2019-05-22T13:39:39.971Z,28.97
2019-05-22T13:42:13.321Z,30.63
2019-05-22T13:44:42.771Z,29.03
2019-05-22T13:47:12.729Z,29.97
2019-05-22T13:49:42.940Z,31.42
2019-05-22T13:52:14.415Z,31.39
2019-05-22T13:54:47.724Z,31.19
2019-05-22T13:57:17.536Z,31.18
2019-05-22T13:59:47.222Z,30.08
2019-05-22T14:02:16.618Z,30.98
2019-05-22T14:04:46.050Z,29.72
2019-05-22T14:07:16.252Z,29.59
2019-05-22T14:09:46.032Z,32.41
2019-05-22T14:12:15.389Z,29.84
2019-05-22T14:14:45.448Z,30.92
2019-05-22T14:17:14.763Z,29.92
2019-05-22T14:19:44.106Z,30.38
2019-05-22T14:22:13.437Z,29.56
2019-05-22T14:24:42.773Z,28.39
2019-05-22T14:27:12.173Z,29.45
2019-05-22T14:29:41.728Z,28.08
2019-05-22T14:32:11.808Z,27.84
2019-05-22T14:34:41.573Z,30.02
2019-05-22T14:37:12.923Z,31.33
2019-05-22T14:39:42.773Z,30.57
2019-05-22T14:42:13.748Z,29.63
2019-05-22T14:44:43.140Z,29.10
2019-05-22T14:47:15.937Z,29.36
2019-05-22T14:49:43.672Z,28.58
2019-05-22T14:52:14.136Z,28.32
2019-05-22T14:54:43.465Z,27.69
2019-05-22T14:57:12.893Z,26.78
2019-05-22T14:59:42.148Z,26.40
2019-05-22T15:02:12.049Z,28.43
2019-05-22T15:04:42.139Z,26.96
2019-05-22T15:07:11.555Z,28.77
2019-05-22T15:09:40.936Z,27.29
2019-05-22T15:12:10.751Z,27.03
2019-05-22T15:14:40.037Z,28.32
2019-05-22T15:17:09.636Z,26.91
2019-05-22T15:19:38.978Z,27.75
2019-05-22T15:22:08.986Z,29.80
2019-05-22T15:24:38.408Z,30.01
2019-05-22T15:27:09.432Z,29.41
2019-05-22T15:29:38.851Z,29.66
2019-05-22T15:32:09.286Z,29.26
2019-05-22T15:34:39.919Z,31.14
2019-05-22T15:37:10.996Z,28.66
2019-05-22T15:39:40.803Z,28.48
2019-05-22T15:42:13.096Z,30.41
2019-05-22T15:44:42.889Z,27.82
2019-05-22T15:47:12.281Z,28.45
2019-05-22T15:49:44.890Z,28.62
2019-05-22T15:52:15.230Z,29.34
2019-05-22T15:54:46.317Z,29.80
2019-05-22T15:57:17.201Z,29.38
2019-05-22T15:59:47.661Z,30.23
2019-05-22T16:02:21.708Z,29.21
2019-05-22T16:04:48.694Z,30.12
2019-05-22T16:07:18.797Z,29.97
2019-05-22T16:09:50.431Z,29.36
2019-05-22T16:12:19.754Z,29.32
2019-05-22T16:14:51.427Z,28.76
2019-05-22T16:17:22.294Z,28.45
2019-05-22T16:19:53.018Z,28.70
2019-05-22T16:22:22.452Z,28.63
2019-05-22T16:24:53.374Z,28.35
2019-05-22T16:27:23.744Z,28.06
2019-05-22T16:29:55.172Z,28.55
2019-05-22T16:32:26.268Z,28.04
2019-05-22T16:34:56.064Z,28.85
2019-05-22T16:37:25.537Z,28.81
2019-05-22T16:39:54.895Z,29.19
2019-05-22T16:42:24.198Z,28.56
2019-05-22T16:44:53.628Z,28.12
2019-05-22T16:47:22.921Z,27.74
2019-05-22T16:49:53.898Z,28.14
2019-05-22T16:52:26.985Z,28.59
2019-05-22T16:54:59.781Z,27.76
2019-05-22T16:57:31.517Z,28.38
2019-05-22T17:00:01.469Z,28.27
2019-05-22T17:02:32.638Z,27.79
2019-05-22T17:05:02.528Z,28.06
2019-05-22T17:07:32.695Z,28.45
2019-05-22T17:10:03.587Z,28.18
2019-05-22T17:12:33.231Z,28.56
2019-05-22T17:15:02.716Z,26.90
2019-05-22T17:17:32.267Z,27.32
2019-05-22T17:20:01.755Z,27.87
2019-05-22T17:22:31.134Z,28.44
2019-05-22T17:25:00.452Z,27.36
2019-05-22T17:27:30.610Z,27.54
2019-05-22T17:30:00.614Z,27.20
2019-05-22T17:32:29.974Z,27.12
2019-05-22T17:35:00.463Z,27.45
2019-05-22T17:37:31.103Z,27.18
2019-05-22T17:40:04.245Z,26.59
2019-05-22T17:42:35.009Z,26.69
2019-05-22T17:45:04.800Z,26.79
2019-05-22T17:47:34.408Z,26.72
2019-05-22T17:50:04.353Z,26.19
2019-05-22T17:52:33.968Z,27.40
2019-05-22T17:55:05.617Z,26.78
2019-05-22T17:57:35.057Z,26.93
2019-05-22T18:00:07.258Z,27.23
2019-05-22T18:02:37.071Z,28.55
2019-05-22T18:05:07.880Z,27.94
2019-05-22T18:07:38.707Z,28.42
2019-05-22T18:10:09.330Z,28.38
2019-05-22T18:12:38.942Z,27.73
2019-05-22T18:15:10.138Z,27.78
2019-05-22T18:17:39.911Z,28.08
2019-05-22T18:20:11.379Z,29.80
2019-05-22T18:22:41.225Z,29.12
2019-05-22T18:25:11.263Z,29.43
2019-05-22T18:27:40.611Z,29.01
2019-05-22T18:30:11.143Z,28.74
2019-05-22T18:32:42.582Z,28.98
2019-05-22T18:35:13.536Z,30.09
2019-05-22T18:37:42.924Z,29.90
2019-05-22T18:40:13.124Z,29.95
2019-05-22T18:42:42.661Z,29.99
2019-05-22T18:45:34.439Z,29.90
2019-05-22T18:48:04.529Z,30.41
2019-05-22T18:50:34.716Z,30.69
2019-05-22T18:53:06.853Z,31.09
2019-05-22T18:55:36.178Z,31.18
2019-05-22T18:58:06.130Z,31.48
2019-05-22T19:00:35.878Z,31.76
2019-05-22T19:03:05.744Z,31.73
2019-05-22T19:05:35.612Z,31.70
2019-05-22T19:08:04.966Z,31.75
2019-05-22T19:10:34.420Z,32.22
2019-05-22T19:13:04.353Z,32.39
2019-05-22T19:15:33.809Z,32.80
2019-05-22T19:18:03.787Z,33.36
2019-05-22T19:20:33.163Z,33.03
2019-05-22T19:23:02.714Z,33.29
2019-05-22T19:25:32.270Z,34.10
2019-05-22T19:28:01.719Z,34.50
2019-05-22T19:30:31.304Z,34.87
2019-05-22T19:33:00.666Z,34.56
2019-05-22T19:35:30.039Z,34.87
2019-05-22T19:38:00.910Z,35.16
2019-05-22T19:40:30.922Z,35.91
2019-05-22T19:43:00.548Z,36.16
2019-05-22T19:45:31.068Z,36.42
2019-05-22T19:48:01.880Z,36.33
2019-05-22T19:50:31.280Z,36.67
2019-05-22T19:53:17.469Z,36.84
2019-05-22T19:55:35.434Z,36.49
2019-05-22T19:58:05.666Z,36.90
2019-05-22T20:00:35.919Z,37.68
2019-05-22T20:03:05.975Z,37.97
2019-05-22T20:05:36.615Z,38.03
2019-05-22T20:08:06.082Z,38.68
2019-05-22T20:10:35.773Z,38.51
2019-05-22T20:13:08.161Z,38.98
2019-05-22T20:15:38.725Z,39.44
2019-05-22T20:18:08.563Z,39.22
2019-05-22T20:20:38.567Z,37.93
2019-05-22T20:23:09.406Z,38.09
2019-05-22T20:25:39.161Z,38.58
2019-05-22T20:28:10.176Z,38.07
2019-05-22T20:30:51.187Z,38.27
2019-05-22T20:33:20.934Z,39.14
2019-05-22T20:35:50.387Z,40.84
2019-05-22T20:38:19.784Z,40.37
2019-05-22T20:40:49.349Z,40.60
2019-05-22T20:43:20.366Z,40.92
2019-05-22T20:45:50.776Z,41.19
2019-05-22T20:48:28.194Z,41.49
2019-05-22T20:50:59.717Z,41.47
2019-05-22T20:53:31.024Z,42.82
2019-05-22T20:56:01.037Z,43.03
2019-05-22T20:58:32.448Z,42.23
2019-05-22T21:01:03.431Z,43.46
2019-05-22T21:03:33.387Z,41.72
2019-05-22T21:06:07.805Z,42.01
2019-05-22T21:08:38.129Z,41.97
2019-05-22T21:11:09.655Z,41.16
2019-05-22T21:13:39.870Z,42.20
2019-05-22T21:16:09.489Z,41.78
2019-05-22T21:18:42.643Z,41.78
2019-05-22T21:21:13.786Z,42.11
2019-05-22T21:23:44.143Z,41.63
2019-05-22T21:26:15.146Z,41.79
2019-05-22T21:28:45.678Z,42.03
2019-05-22T21:31:17.052Z,42.15
2019-05-22T21:33:46.839Z,42.25
2019-05-22T21:36:18.931Z,42.74
2019-05-22T21:38:48.325Z,42.86
2019-05-22T21:41:21.935Z,43.26
2019-05-22T21:43:52.461Z,42.80
2019-05-22T21:46:22.356Z,42.22
2019-05-22T21:48:56.418Z,42.37
2019-05-22T21:51:26.343Z,43.50
2019-05-22T21:53:56.489Z,42.92
2019-05-22T21:56:26.066Z,42.51
2019-05-22T21:58:55.872Z,42.13
2019-05-22T22:01:39.089Z,42.31
2019-05-22T22:04:20.298Z,42.72
2019-05-22T22:06:51.237Z,42.88
2019-05-22T22:09:21.781Z,42.75
2019-05-22T22:11:52.813Z,42.96
2019-05-22T22:14:24.086Z,42.79
2019-05-22T22:16:53.509Z,42.74
2019-05-22T22:19:23.864Z,43.16
2019-05-22T22:21:53.139Z,43.49
2019-05-22T22:24:23.072Z,43.40
2019-05-22T22:26:53.133Z,43.44
2019-05-22T22:29:23.195Z,44.47
2019-05-22T22:31:54.174Z,44.70
2019-05-22T22:34:30.625Z,44.58
2019-05-22T22:37:00.690Z,45.05
2019-05-22T22:39:38.327Z,44.78
2019-05-22T22:42:10.892Z,45.26
2019-05-22T22:44:41.051Z,45.92
2019-05-22T22:47:15.949Z,46.39
2019-05-22T22:49:45.926Z,46.32
2019-05-22T22:52:16.176Z,46.46
2019-05-22T22:54:46.102Z,45.63
2019-05-22T22:57:15.841Z,46.42
2019-05-22T22:59:45.779Z,46.01
2019-05-22T23:02:18.238Z,45.92
2019-05-22T23:04:48.736Z,45.69
2019-05-22T23:07:19.632Z,46.79
2019-05-22T23:09:49.369Z,46.60
2019-05-22T23:12:19.628Z,46.69
2019-05-22T23:14:56.748Z,47.11
2019-05-22T23:17:26.143Z,47.34
2019-05-22T23:19:54.898Z,47.34
2019-05-22T23:22:28.628Z,48.41
2019-05-22T23:24:59.566Z,48.57
2019-05-22T23:27:31.428Z,49.17
2019-05-22T23:30:01.100Z,48.94
2019-05-22T23:32:30.992Z,48.97
2019-05-22T23:35:01.017Z,49.62
2019-05-22T23:37:30.462Z,49.82
2019-05-22T23:40:00.064Z,49.29
2019-05-22T23:42:35.030Z,49.42
2019-05-22T23:45:07.546Z,50.35
2019-05-22T23:47:45.277Z,49.99
2019-05-22T23:50:15.465Z,50.69
2019-05-22T23:52:44.860Z,50.55
2019-05-22T23:55:14.437Z,51.33
2019-05-22T23:57:43.791Z,50.64
